createdAt,value
2017-12-17T00:00:53.018Z,0
2017-12-17T00:01:54.372Z,0
2017-12-17T00:02:55.730Z,0
2017-12-17T00:03:57.088Z,0
2017-12-17T00:04:58.449Z,0
2017-12-17T00:05:59.807Z,0
2017-12-17T00:07:01.165Z,0
2017-12-17T00:08:02.534Z,0
2017-12-17T00:09:03.889Z,0
2017-12-17T00:10:05.244Z,0
2017-12-17T00:11:06.603Z,0
2017-12-17T00:12:07.959Z,0
2017-12-17T00:13:09.308Z,0
2017-12-17T00:14:10.675Z,0
2017-12-17T00:15:12.038Z,0
2017-12-17T00:16:14.339Z,0
2017-12-17T00:17:15.764Z,0
2017-12-17T00:18:17.125Z,0
2017-12-17T00:19:18.471Z,0
2017-12-17T00:20:19.839Z,0
2017-12-17T00:21:21.186Z,0
2017-12-17T00:22:22.541Z,0
2017-12-17T00:23:23.901Z,0
2017-12-17T00:24:25.256Z,0
2017-12-17T00:25:26.618Z,0
2017-12-17T00:26:27.980Z,0
2017-12-17T00:27:29.325Z,0
2017-12-17T00:28:30.675Z,0
2017-12-17T00:29:32.030Z,0
2017-12-17T00:30:33.397Z,0
2017-12-17T00:31:34.751Z,0
2017-12-17T00:32:36.108Z,0
2017-12-17T00:33:37.467Z,0
2017-12-17T00:34:38.822Z,0
2017-12-17T00:35:40.181Z,0
2017-12-17T00:36:41.540Z,0
2017-12-17T00:37:42.901Z,0
2017-12-17T00:38:44.259Z,0
2017-12-17T00:39:45.620Z,0
2017-12-17T00:40:46.976Z,0
2017-12-17T00:41:48.348Z,0
2017-12-17T00:42:49.694Z,0
2017-12-17T00:43:51.048Z,0
2017-12-17T00:44:52.408Z,0
2017-12-17T00:45:53.770Z,0
2017-12-17T00:46:55.121Z,0
2017-12-17T00:47:56.478Z,0
2017-12-17T00:48:57.826Z,0
2017-12-17T00:49:59.185Z,0
2017-12-17T00:51:00.545Z,0
2017-12-17T00:52:01.906Z,0
2017-12-17T00:53:03.269Z,0
2017-12-17T00:54:04.631Z,0
2017-12-17T00:55:05.980Z,0
2017-12-17T00:56:07.338Z,0
2017-12-17T00:57:08.699Z,0
2017-12-17T00:58:10.059Z,0
2017-12-17T00:59:11.411Z,0
2017-12-17T01:00:12.770Z,0
2017-12-17T01:01:14.123Z,0
2017-12-17T01:02:15.476Z,0
2017-12-17T01:03:16.831Z,0
2017-12-17T01:04:18.192Z,0
2017-12-17T01:05:19.545Z,0
2017-12-17T01:06:20.908Z,0
2017-12-17T01:07:22.265Z,0
2017-12-17T01:08:23.628Z,0
2017-12-17T01:09:24.977Z,0
2017-12-17T01:10:26.335Z,0
2017-12-17T01:11:27.693Z,0
2017-12-17T01:12:29.049Z,0
2017-12-17T01:13:30.407Z,0
2017-12-17T01:14:31.763Z,0
2017-12-17T01:15:33.124Z,0
2017-12-17T01:16:34.485Z,0
2017-12-17T01:17:35.846Z,0
2017-12-17T01:18:37.194Z,0
2017-12-17T01:19:38.554Z,0
2017-12-17T01:20:39.908Z,0
2017-12-17T01:21:41.265Z,0
2017-12-17T01:22:42.626Z,0
2017-12-17T01:23:43.979Z,0
2017-12-17T01:24:45.338Z,0
2017-12-17T01:25:46.698Z,0
2017-12-17T01:26:48.057Z,0
2017-12-17T01:27:49.414Z,0
2017-12-17T01:28:50.773Z,0
2017-12-17T01:29:52.130Z,0
2017-12-17T01:30:53.496Z,0
2017-12-17T01:31:54.848Z,0
2017-12-17T01:32:56.201Z,0
2017-12-17T01:33:57.561Z,0
2017-12-17T01:34:58.913Z,0
2017-12-17T01:36:00.275Z,0
2017-12-17T01:37:01.642Z,0
2017-12-17T01:38:02.989Z,0
2017-12-17T01:39:04.353Z,0
2017-12-17T01:40:05.715Z,0
2017-12-17T01:41:07.069Z,0
2017-12-17T01:42:08.434Z,0
2017-12-17T01:43:09.791Z,0
2017-12-17T01:44:11.981Z,0
2017-12-17T01:45:13.337Z,0
2017-12-17T01:46:14.688Z,0
2017-12-17T01:47:16.040Z,0
2017-12-17T01:48:17.416Z,0
2017-12-17T01:49:18.750Z,0
2017-12-17T01:50:20.109Z,0
2017-12-17T01:51:21.474Z,0
2017-12-17T01:52:22.833Z,0
2017-12-17T01:53:24.188Z,0
2017-12-17T01:54:25.546Z,0
2017-12-17T01:55:26.903Z,0
2017-12-17T01:56:28.254Z,0
2017-12-17T01:57:29.625Z,0
2017-12-17T01:58:30.982Z,0
2017-12-17T01:59:32.342Z,0
2017-12-17T02:00:33.704Z,0
2017-12-17T02:01:35.056Z,0
2017-12-17T02:02:36.419Z,0
2017-12-17T02:03:37.820Z,0
2017-12-17T02:04:39.148Z,0
2017-12-17T02:05:40.502Z,0
2017-12-17T02:06:41.858Z,0
2017-12-17T02:07:43.216Z,0
2017-12-17T02:08:44.567Z,0
2017-12-17T02:09:45.922Z,0
2017-12-17T02:10:47.284Z,0
2017-12-17T02:11:48.635Z,0
2017-12-17T02:12:49.990Z,0
2017-12-17T02:13:51.340Z,0
2017-12-17T02:14:52.698Z,0
2017-12-17T02:15:54.055Z,0
2017-12-17T02:16:55.412Z,0
2017-12-17T02:17:56.772Z,0
2017-12-17T02:18:58.133Z,0
2017-12-17T02:19:59.493Z,0
2017-12-17T02:21:00.851Z,0
2017-12-17T02:22:02.209Z,0
2017-12-17T02:23:03.564Z,0
2017-12-17T02:24:04.920Z,0
2017-12-17T02:25:06.281Z,0
2017-12-17T02:26:07.635Z,0
2017-12-17T02:27:09.705Z,0
2017-12-17T02:28:11.080Z,0
2017-12-17T02:29:12.372Z,0
2017-12-17T02:30:13.722Z,0
2017-12-17T02:31:15.086Z,0
2017-12-17T02:32:16.443Z,0
2017-12-17T02:33:17.800Z,0
2017-12-17T02:34:19.157Z,0
2017-12-17T02:35:20.506Z,0
2017-12-17T02:36:21.861Z,0
2017-12-17T02:37:23.275Z,0
2017-12-17T02:38:24.640Z,0
2017-12-17T02:39:25.999Z,0
2017-12-17T02:40:27.371Z,0
2017-12-17T02:41:28.726Z,0
2017-12-17T02:42:30.113Z,0
2017-12-17T02:43:31.470Z,0
2017-12-17T02:44:32.878Z,0
2017-12-17T02:45:34.300Z,0
2017-12-17T02:46:36.278Z,0
2017-12-17T02:47:37.638Z,0
2017-12-17T02:48:38.998Z,0
2017-12-17T02:49:40.374Z,0
2017-12-17T02:50:41.777Z,0
2017-12-17T02:51:43.131Z,0
2017-12-17T02:52:44.511Z,0
2017-12-17T02:53:45.907Z,0
2017-12-17T02:54:47.341Z,0
2017-12-17T02:55:48.795Z,0
2017-12-17T02:56:50.183Z,0
2017-12-17T02:57:51.602Z,0
2017-12-17T02:58:53.028Z,0
2017-12-17T02:59:54.364Z,0
2017-12-17T03:00:55.745Z,0
2017-12-17T03:01:57.109Z,0
2017-12-17T03:03:01.231Z,0
2017-12-17T03:04:03.153Z,0
2017-12-17T03:05:04.503Z,0
2017-12-17T03:06:06.510Z,0
2017-12-17T03:07:07.856Z,0
2017-12-17T03:08:09.224Z,0
2017-12-17T03:09:10.581Z,0
2017-12-17T03:10:11.943Z,0
2017-12-17T03:11:13.294Z,0
2017-12-17T03:12:14.653Z,0
2017-12-17T03:13:16.003Z,0
2017-12-17T03:14:17.361Z,0
2017-12-17T03:15:18.716Z,0
2017-12-17T03:16:20.072Z,0
2017-12-17T03:17:21.443Z,0
2017-12-17T03:18:22.788Z,0
2017-12-17T03:19:24.154Z,0
2017-12-17T03:20:25.511Z,0
2017-12-17T03:21:26.868Z,0
2017-12-17T03:22:28.227Z,0
2017-12-17T03:23:29.580Z,0
2017-12-17T03:24:30.942Z,0
2017-12-17T03:25:32.291Z,0
2017-12-17T03:26:33.648Z,0
2017-12-17T03:27:35.006Z,0
2017-12-17T03:28:36.365Z,0
2017-12-17T03:29:37.748Z,0
2017-12-17T03:30:39.102Z,0
2017-12-17T03:31:40.458Z,0
2017-12-17T03:32:41.859Z,0
2017-12-17T03:33:43.275Z,0
2017-12-17T03:34:44.704Z,0
2017-12-17T03:35:46.117Z,0
2017-12-17T03:36:47.482Z,0
2017-12-17T03:37:48.885Z,0
2017-12-17T03:38:50.259Z,0
2017-12-17T03:39:51.625Z,0
2017-12-17T03:40:53.056Z,0
2017-12-17T03:41:54.436Z,0
2017-12-17T03:42:55.791Z,0
2017-12-17T03:43:57.201Z,0
2017-12-17T03:44:58.589Z,0
2017-12-17T03:45:59.984Z,0
2017-12-17T03:47:01.350Z,0
2017-12-17T03:48:02.699Z,0
2017-12-17T03:49:04.059Z,0
2017-12-17T03:50:05.401Z,0
2017-12-17T03:51:06.765Z,0
2017-12-17T03:52:08.125Z,0
2017-12-17T03:53:09.473Z,0
2017-12-17T03:54:10.829Z,0
2017-12-17T03:55:12.184Z,0
2017-12-17T03:56:13.540Z,0
2017-12-17T03:57:14.904Z,0
2017-12-17T03:58:16.270Z,0
2017-12-17T03:59:17.622Z,0
2017-12-17T04:00:18.986Z,0
2017-12-17T04:01:20.338Z,0
2017-12-17T04:02:21.688Z,0
2017-12-17T04:03:23.048Z,0
2017-12-17T04:04:24.404Z,0
2017-12-17T04:05:25.757Z,0
2017-12-17T04:06:27.116Z,0
2017-12-17T04:07:28.478Z,0
2017-12-17T04:08:29.831Z,0
2017-12-17T04:09:31.181Z,0
2017-12-17T04:10:32.531Z,0
2017-12-17T04:11:33.889Z,0
2017-12-17T04:12:35.248Z,0
2017-12-17T04:13:36.598Z,0
2017-12-17T04:14:37.959Z,0
2017-12-17T04:15:39.315Z,0
2017-12-17T04:16:40.664Z,0
2017-12-17T04:17:42.024Z,0
2017-12-17T04:18:43.379Z,0
2017-12-17T04:19:44.737Z,0
2017-12-17T04:20:46.834Z,0
2017-12-17T04:21:48.194Z,0
2017-12-17T04:22:49.545Z,0
2017-12-17T04:23:50.895Z,0
2017-12-17T04:24:52.254Z,0
2017-12-17T04:25:53.612Z,0
2017-12-17T04:26:54.963Z,0
2017-12-17T04:27:56.325Z,0
2017-12-17T04:28:57.689Z,0
2017-12-17T04:29:59.056Z,0
2017-12-17T04:31:00.419Z,0
2017-12-17T04:32:01.778Z,0
2017-12-17T04:33:03.135Z,0
2017-12-17T04:34:04.488Z,0
2017-12-17T04:35:05.844Z,0
2017-12-17T04:36:07.208Z,0
2017-12-17T04:37:08.565Z,0
2017-12-17T04:38:09.918Z,0
2017-12-17T04:39:11.268Z,0
2017-12-17T04:40:12.623Z,0
2017-12-17T04:41:13.977Z,0
2017-12-17T04:42:15.340Z,0
2017-12-17T04:43:16.697Z,0
2017-12-17T04:44:18.052Z,0
2017-12-17T04:45:19.413Z,0
2017-12-17T04:46:20.777Z,0
2017-12-17T04:47:22.130Z,0
2017-12-17T04:48:23.484Z,0
2017-12-17T04:49:24.843Z,0
2017-12-17T04:50:26.203Z,0
2017-12-17T04:51:27.560Z,0
2017-12-17T04:52:28.911Z,0
2017-12-17T04:53:30.270Z,0
2017-12-17T04:54:31.631Z,0
2017-12-17T04:55:32.982Z,0
2017-12-17T04:56:34.342Z,0
2017-12-17T04:57:35.703Z,0
2017-12-17T04:58:37.053Z,0
2017-12-17T04:59:39.058Z,0
2017-12-17T05:00:40.415Z,0
2017-12-17T05:01:41.779Z,0
2017-12-17T05:02:43.139Z,0
2017-12-17T05:03:44.494Z,0
2017-12-17T05:04:45.857Z,0
2017-12-17T05:05:47.207Z,0
2017-12-17T05:06:48.564Z,0
2017-12-17T05:07:49.921Z,0
2017-12-17T05:08:51.283Z,0
2017-12-17T05:09:52.660Z,0
2017-12-17T05:10:54.048Z,0
2017-12-17T05:11:55.371Z,0
2017-12-17T05:12:56.727Z,0
2017-12-17T05:13:58.087Z,0
2017-12-17T05:14:59.446Z,0
2017-12-17T05:16:00.809Z,0
2017-12-17T05:17:02.159Z,0
2017-12-17T05:18:03.573Z,0
2017-12-17T05:19:04.932Z,0
2017-12-17T05:20:06.297Z,0
2017-12-17T05:21:07.655Z,0
2017-12-17T05:22:09.007Z,0
2017-12-17T05:23:10.364Z,0
2017-12-17T05:24:11.723Z,0
2017-12-17T05:25:13.078Z,0
2017-12-17T05:26:14.440Z,0
2017-12-17T05:27:15.800Z,0
2017-12-17T05:28:17.158Z,0
2017-12-17T05:29:18.510Z,0
2017-12-17T05:30:19.870Z,0
2017-12-17T05:31:21.227Z,0
2017-12-17T05:32:22.581Z,0
2017-12-17T05:33:23.944Z,0
2017-12-17T05:34:25.297Z,0
2017-12-17T05:35:26.654Z,0
2017-12-17T05:36:28.007Z,0
2017-12-17T05:37:29.365Z,0
2017-12-17T05:38:30.723Z,0
2017-12-17T05:39:32.077Z,0
2017-12-17T05:40:33.436Z,0
2017-12-17T05:41:34.800Z,0
2017-12-17T05:42:36.144Z,0
2017-12-17T05:43:37.504Z,0
2017-12-17T05:44:38.858Z,0
2017-12-17T05:45:41.176Z,0
2017-12-17T05:46:42.529Z,0
2017-12-17T05:47:43.885Z,0
2017-12-17T05:48:45.234Z,0
2017-12-17T05:49:46.592Z,0
2017-12-17T05:50:47.942Z,0
2017-12-17T05:51:49.303Z,0
2017-12-17T05:52:50.661Z,0
2017-12-17T05:53:52.018Z,0
2017-12-17T05:54:53.375Z,0
2017-12-17T05:55:54.771Z,0
2017-12-17T05:56:56.077Z,0
2017-12-17T05:57:57.433Z,0
2017-12-17T05:58:58.788Z,0
2017-12-17T06:00:00.144Z,0
2017-12-17T06:01:01.502Z,0
2017-12-17T06:02:02.864Z,0
2017-12-17T06:03:04.214Z,0
2017-12-17T06:04:05.567Z,0
2017-12-17T06:05:06.925Z,0
2017-12-17T06:06:08.283Z,0
2017-12-17T06:07:09.644Z,0
2017-12-17T06:08:11.000Z,0
2017-12-17T06:09:12.352Z,0
2017-12-17T06:10:13.709Z,0
2017-12-17T06:11:15.067Z,0
2017-12-17T06:12:16.422Z,0
2017-12-17T06:13:17.782Z,0
2017-12-17T06:14:19.132Z,0
2017-12-17T06:15:20.494Z,0
2017-12-17T06:16:21.850Z,0
2017-12-17T06:17:23.208Z,0
2017-12-17T06:18:24.575Z,0
2017-12-17T06:19:25.932Z,0
2017-12-17T06:20:27.281Z,0
2017-12-17T06:21:28.645Z,0
2017-12-17T06:22:30.020Z,0
2017-12-17T06:23:32.290Z,0
2017-12-17T06:24:33.670Z,0
2017-12-17T06:25:34.999Z,0
2017-12-17T06:26:36.358Z,0
2017-12-17T06:27:37.712Z,0
2017-12-17T06:28:39.062Z,0
2017-12-17T06:29:40.420Z,0
2017-12-17T06:30:41.785Z,0
2017-12-17T06:31:43.139Z,0
2017-12-17T06:32:44.496Z,0
2017-12-17T06:33:45.858Z,0
2017-12-17T06:34:47.210Z,0
2017-12-17T06:35:48.559Z,0
2017-12-17T06:36:49.913Z,0
2017-12-17T06:37:51.271Z,0
2017-12-17T06:38:52.630Z,0
2017-12-17T06:39:53.984Z,0
2017-12-17T06:40:55.342Z,0
2017-12-17T06:41:56.699Z,0
2017-12-17T06:42:58.059Z,0
2017-12-17T06:43:59.410Z,0
2017-12-17T06:45:00.771Z,0
2017-12-17T06:46:02.116Z,0
2017-12-17T06:47:03.469Z,0
2017-12-17T06:48:04.827Z,0
2017-12-17T06:49:06.184Z,0
2017-12-17T06:50:07.546Z,0
2017-12-17T06:51:08.905Z,0
2017-12-17T06:52:10.256Z,0
2017-12-17T06:53:11.610Z,0
2017-12-17T06:54:12.971Z,0
2017-12-17T06:55:14.329Z,0
2017-12-17T06:56:15.681Z,0
2017-12-17T06:57:17.032Z,0
2017-12-17T06:58:18.400Z,0
2017-12-17T06:59:19.748Z,0
2017-12-17T07:00:21.113Z,0
2017-12-17T07:01:22.464Z,4
2017-12-17T07:02:23.831Z,4
2017-12-17T07:03:25.186Z,0
2017-12-17T07:04:27.169Z,4
2017-12-17T07:05:28.532Z,4
2017-12-17T07:06:29.891Z,4
2017-12-17T07:07:31.237Z,4
2017-12-17T07:08:32.598Z,4
2017-12-17T07:09:33.956Z,4
2017-12-17T07:10:35.320Z,8
2017-12-17T07:11:36.665Z,4
2017-12-17T07:12:38.026Z,4
2017-12-17T07:13:39.380Z,8
2017-12-17T07:14:40.742Z,8
2017-12-17T07:15:42.085Z,8
2017-12-17T07:16:43.439Z,12
2017-12-17T07:17:44.793Z,8
2017-12-17T07:18:46.149Z,8
2017-12-17T07:19:47.505Z,8
2017-12-17T07:20:48.874Z,12
2017-12-17T07:21:50.223Z,8
2017-12-17T07:22:51.575Z,8
2017-12-17T07:23:52.938Z,12
2017-12-17T07:24:54.299Z,12
2017-12-17T07:25:55.660Z,12
2017-12-17T07:26:57.018Z,16
2017-12-17T07:27:58.377Z,20
2017-12-17T07:28:59.732Z,16
2017-12-17T07:30:01.092Z,16
2017-12-17T07:31:02.451Z,20
2017-12-17T07:32:03.808Z,20
2017-12-17T07:33:05.167Z,24
2017-12-17T07:34:06.529Z,24
2017-12-17T07:35:07.886Z,24
2017-12-17T07:36:09.237Z,28
2017-12-17T07:37:11.276Z,28
2017-12-17T07:38:13.480Z,36
2017-12-17T07:39:14.836Z,36
2017-12-17T07:40:16.194Z,40
2017-12-17T07:41:18.236Z,40
2017-12-17T07:42:19.597Z,48
2017-12-17T07:43:20.954Z,52
2017-12-17T07:44:22.313Z,56
2017-12-17T07:45:23.673Z,60
2017-12-17T07:46:25.033Z,56
2017-12-17T07:47:27.013Z,48
2017-12-17T07:48:28.374Z,44
2017-12-17T07:49:29.733Z,48
2017-12-17T07:50:31.099Z,52
2017-12-17T07:51:32.463Z,52
2017-12-17T07:52:33.816Z,56
2017-12-17T07:53:35.171Z,72
2017-12-17T07:54:36.575Z,84
2017-12-17T07:55:37.887Z,80
2017-12-17T07:56:39.245Z,72
2017-12-17T07:57:40.604Z,68
2017-12-17T07:58:41.956Z,64
2017-12-17T07:59:43.311Z,60
2017-12-17T08:00:44.671Z,60
2017-12-17T08:01:46.033Z,68
2017-12-17T08:02:47.396Z,80
2017-12-17T08:03:48.757Z,92
2017-12-17T08:04:50.124Z,88
2017-12-17T08:05:51.477Z,80
2017-12-17T08:06:52.833Z,76
2017-12-17T08:07:54.194Z,68
2017-12-17T08:08:55.551Z,64
2017-12-17T08:09:56.902Z,60
2017-12-17T08:10:58.267Z,56
2017-12-17T08:11:59.620Z,56
2017-12-17T08:13:00.986Z,56
2017-12-17T08:14:02.328Z,52
2017-12-17T08:15:03.712Z,32
2017-12-17T08:16:05.061Z,40
2017-12-17T08:17:06.413Z,40
2017-12-17T08:18:07.777Z,32
2017-12-17T08:19:09.125Z,32
2017-12-17T08:20:10.479Z,36
2017-12-17T08:21:11.840Z,40
2017-12-17T08:22:13.193Z,32
2017-12-17T08:23:14.552Z,36
2017-12-17T08:24:15.908Z,32
2017-12-17T08:25:17.277Z,36
2017-12-17T08:26:20.080Z,28
2017-12-17T08:27:24.063Z,52
2017-12-17T08:28:25.422Z,56
2017-12-17T08:29:26.772Z,68
2017-12-17T08:30:28.127Z,88
2017-12-17T08:31:29.484Z,96
2017-12-17T08:32:30.912Z,96
2017-12-17T08:33:32.278Z,104
2017-12-17T08:34:33.630Z,108
2017-12-17T08:35:35.053Z,120
2017-12-17T08:36:36.359Z,116
2017-12-17T08:37:37.719Z,124
2017-12-17T08:38:39.078Z,128
2017-12-17T08:39:40.438Z,136
2017-12-17T08:40:41.795Z,132
2017-12-17T08:41:43.940Z,132
2017-12-17T08:42:45.298Z,128
2017-12-17T08:43:46.660Z,128
2017-12-17T08:44:48.018Z,152
2017-12-17T08:45:49.386Z,156
2017-12-17T08:46:50.750Z,148
2017-12-17T08:47:52.110Z,144
2017-12-17T08:48:53.478Z,156
2017-12-17T08:49:54.832Z,172
2017-12-17T08:50:56.404Z,172
2017-12-17T08:51:57.762Z,160
2017-12-17T08:52:59.133Z,156
2017-12-17T08:54:00.486Z,168
2017-12-17T08:55:01.842Z,180
2017-12-17T08:56:03.200Z,192
2017-12-17T08:57:04.559Z,228
2017-12-17T08:58:05.919Z,256
2017-12-17T08:59:07.286Z,252
2017-12-17T09:00:08.637Z,304
2017-12-17T09:01:10.003Z,332
2017-12-17T09:02:11.357Z,296
2017-12-17T09:03:12.725Z,252
2017-12-17T09:04:14.081Z,232
2017-12-17T09:05:15.440Z,228
2017-12-17T09:06:16.805Z,200
2017-12-17T09:07:18.167Z,184
2017-12-17T09:08:19.529Z,184
2017-12-17T09:09:20.891Z,208
2017-12-17T09:10:22.244Z,232
2017-12-17T09:11:23.602Z,252
2017-12-17T09:12:24.976Z,224
2017-12-17T09:13:26.340Z,204
2017-12-17T09:14:27.695Z,192
2017-12-17T09:15:29.060Z,176
2017-12-17T09:16:30.422Z,172
2017-12-17T09:17:31.781Z,168
2017-12-17T09:18:33.153Z,172
2017-12-17T09:19:34.515Z,172
2017-12-17T09:20:35.870Z,180
2017-12-17T09:21:37.231Z,188
2017-12-17T09:22:38.593Z,204
2017-12-17T09:23:39.954Z,244
2017-12-17T09:24:41.308Z,240
2017-12-17T09:25:42.671Z,260
2017-12-17T09:26:44.023Z,280
2017-12-17T09:27:45.384Z,284
2017-12-17T09:28:46.754Z,284
2017-12-17T09:29:48.108Z,272
2017-12-17T09:30:50.046Z,268
2017-12-17T09:31:51.407Z,268
2017-12-17T09:32:54.061Z,308
2017-12-17T09:33:55.979Z,340
2017-12-17T09:34:59.280Z,316
2017-12-17T09:36:01.996Z,280
2017-12-17T09:37:04.018Z,276
2017-12-17T09:38:07.793Z,296
2017-12-17T09:39:09.961Z,284
2017-12-17T09:40:13.787Z,212
2017-12-17T09:41:15.139Z,208
2017-12-17T09:42:17.052Z,220
2017-12-17T09:43:19.564Z,192
2017-12-17T09:44:21.535Z,188
2017-12-17T09:45:22.893Z,192
2017-12-17T09:46:24.783Z,176
2017-12-17T09:47:26.142Z,244
2017-12-17T09:59:08.295Z,264
2017-12-17T10:00:09.644Z,256
2017-12-17T10:01:30.105Z,252
2017-12-17T10:02:31.456Z,268
2017-12-17T10:03:51.952Z,268
2017-12-17T10:04:53.306Z,264
2017-12-17T10:06:13.752Z,248
2017-12-17T10:07:15.116Z,240
2017-12-17T10:08:35.582Z,264
2017-12-17T10:09:36.944Z,260
2017-12-17T10:10:57.415Z,272
2017-12-17T10:11:58.781Z,284
2017-12-17T10:13:19.231Z,292
2017-12-17T10:14:20.590Z,292
2017-12-17T10:15:41.063Z,288
2017-12-17T10:16:42.427Z,320
2017-12-17T10:18:02.875Z,364
2017-12-17T10:19:04.238Z,232
2017-12-17T10:20:24.764Z,216
2017-12-17T10:21:26.127Z,208
2017-12-17T10:22:27.488Z,260
2017-12-17T10:23:28.838Z,268
2017-12-17T10:24:30.212Z,276
2017-12-17T10:25:31.570Z,296
2017-12-17T10:26:32.924Z,300
2017-12-17T10:27:34.282Z,300
2017-12-17T10:28:35.637Z,248
2017-12-17T10:29:36.997Z,260
2017-12-17T10:30:38.352Z,236
2017-12-17T10:31:39.710Z,220
2017-12-17T10:32:41.084Z,212
2017-12-17T10:33:42.427Z,228
2017-12-17T10:34:43.791Z,336
2017-12-17T10:35:45.142Z,344
2017-12-17T10:36:46.506Z,320
2017-12-17T10:37:47.856Z,344
2017-12-17T10:38:49.220Z,372
2017-12-17T10:39:50.579Z,412
2017-12-17T10:40:51.945Z,376
2017-12-17T10:41:53.313Z,340
2017-12-17T10:42:54.663Z,348
2017-12-17T10:43:56.026Z,348
2017-12-17T10:44:57.498Z,324
2017-12-17T10:45:58.736Z,328
2017-12-17T10:47:00.094Z,344
2017-12-17T10:48:01.441Z,336
2017-12-17T10:49:02.804Z,376
2017-12-17T10:50:04.168Z,404
2017-12-17T10:51:05.543Z,432
2017-12-17T10:52:06.901Z,464
2017-12-17T10:53:08.266Z,488
2017-12-17T10:54:09.626Z,468
2017-12-17T10:55:10.985Z,468
2017-12-17T10:56:12.353Z,528
2017-12-17T10:57:13.714Z,652
2017-12-17T10:58:15.071Z,652
2017-12-17T10:59:16.447Z,616
2017-12-17T11:00:17.792Z,656
2017-12-17T11:01:19.171Z,704
2017-12-17T11:02:20.539Z,584
2017-12-17T11:03:21.900Z,492
2017-12-17T11:04:23.266Z,468
2017-12-17T11:05:24.629Z,492
2017-12-17T11:06:25.988Z,520
2017-12-17T11:07:27.347Z,532
2017-12-17T11:08:28.719Z,508
2017-12-17T11:09:30.077Z,456
2017-12-17T11:10:31.433Z,436
2017-12-17T11:11:32.813Z,524
2017-12-17T11:12:34.175Z,532
2017-12-17T11:13:35.533Z,412
2017-12-17T11:14:36.909Z,348
2017-12-17T11:15:38.261Z,376
2017-12-17T11:16:39.626Z,408
2017-12-17T11:17:40.992Z,392
2017-12-17T11:18:42.349Z,400
2017-12-17T11:19:43.725Z,340
2017-12-17T11:20:45.090Z,296
2017-12-17T11:21:46.444Z,308
2017-12-17T11:22:47.803Z,352
2017-12-17T11:23:49.169Z,264
2017-12-17T11:24:50.566Z,212
2017-12-17T11:25:51.918Z,188
2017-12-17T11:26:53.278Z,212
2017-12-17T11:27:54.633Z,208
2017-12-17T11:28:55.997Z,192
2017-12-17T11:29:57.495Z,188
2017-12-17T11:30:58.864Z,192
2017-12-17T11:32:00.238Z,196
2017-12-17T11:33:01.598Z,188
2017-12-17T11:34:02.955Z,164
2017-12-17T11:35:04.317Z,152
2017-12-17T11:36:05.680Z,136
2017-12-17T11:37:07.043Z,140
2017-12-17T11:38:08.414Z,156
2017-12-17T11:39:09.769Z,168
2017-12-17T11:40:11.134Z,156
2017-12-17T11:41:12.542Z,140
2017-12-17T11:42:13.861Z,140
2017-12-17T11:43:15.243Z,140
2017-12-17T11:44:16.599Z,112
2017-12-17T11:45:17.968Z,108
2017-12-17T11:46:19.331Z,120
2017-12-17T11:47:20.689Z,112
2017-12-17T11:48:22.078Z,108
2017-12-17T11:49:23.433Z,112
2017-12-17T11:50:24.802Z,120
2017-12-17T11:51:26.155Z,128
2017-12-17T11:52:27.523Z,132
2017-12-17T11:53:28.883Z,128
2017-12-17T11:54:30.244Z,128
2017-12-17T11:55:31.605Z,140
2017-12-17T11:56:32.964Z,148
2017-12-17T11:57:34.324Z,156
2017-12-17T11:58:35.682Z,152
2017-12-17T11:59:37.058Z,148
2017-12-17T12:00:38.419Z,152
2017-12-17T12:01:39.782Z,164
2017-12-17T12:02:41.158Z,172
2017-12-17T12:03:42.524Z,172
2017-12-17T12:04:43.886Z,188
2017-12-17T12:05:45.243Z,212
2017-12-17T12:06:46.613Z,216
2017-12-17T12:07:47.971Z,212
2017-12-17T12:08:49.323Z,168
2017-12-17T12:09:50.686Z,152
2017-12-17T12:10:52.057Z,164
2017-12-17T12:11:53.417Z,184
2017-12-17T12:12:54.776Z,188
2017-12-17T12:13:56.136Z,180
2017-12-17T12:14:57.502Z,184
2017-12-17T12:15:58.865Z,180
2017-12-17T12:17:00.217Z,180
2017-12-17T12:18:01.583Z,188
2017-12-17T12:19:02.940Z,180
2017-12-17T12:20:04.309Z,172
2017-12-17T12:21:05.782Z,160
2017-12-17T12:22:07.149Z,148
2017-12-17T12:23:08.513Z,136
2017-12-17T12:24:09.869Z,136
2017-12-17T12:25:11.233Z,160
2017-12-17T12:26:12.589Z,180
2017-12-17T12:27:13.956Z,176
2017-12-17T12:28:15.309Z,180
2017-12-17T12:29:16.674Z,200
2017-12-17T12:30:18.035Z,216
2017-12-17T12:31:19.395Z,228
2017-12-17T12:32:20.750Z,220
2017-12-17T12:33:22.113Z,216
2017-12-17T12:34:23.470Z,180
2017-12-17T12:35:24.839Z,160
2017-12-17T12:36:26.201Z,152
2017-12-17T12:37:27.574Z,156
2017-12-17T12:38:28.938Z,192
2017-12-17T12:39:30.298Z,232
2017-12-17T12:40:31.663Z,248
2017-12-17T12:41:33.025Z,240
2017-12-17T12:42:34.382Z,192
2017-12-17T12:43:35.745Z,220
2017-12-17T12:44:37.107Z,216
2017-12-17T12:45:38.471Z,180
2017-12-17T12:46:39.837Z,216
2017-12-17T12:47:41.209Z,232
2017-12-17T12:48:42.563Z,212
2017-12-17T12:49:43.922Z,176
2017-12-17T12:50:45.289Z,152
2017-12-17T12:51:46.663Z,140
2017-12-17T12:52:48.026Z,200
2017-12-17T12:53:49.383Z,188
2017-12-17T12:54:50.746Z,172
2017-12-17T12:55:52.110Z,180
2017-12-17T12:56:53.472Z,184
2017-12-17T12:57:54.837Z,188
2017-12-17T12:58:56.195Z,176
2017-12-17T12:59:57.556Z,188
2017-12-17T13:00:58.920Z,196
2017-12-17T13:02:00.279Z,192
2017-12-17T13:03:01.649Z,196
2017-12-17T13:04:03.800Z,192
2017-12-17T13:05:05.162Z,188
2017-12-17T13:06:06.530Z,188
2017-12-17T13:07:07.887Z,200
2017-12-17T13:08:09.240Z,196
2017-12-17T13:09:10.608Z,200
2017-12-17T13:10:11.981Z,204
2017-12-17T13:11:13.348Z,188
2017-12-17T13:12:14.725Z,168
2017-12-17T13:13:16.088Z,160
2017-12-17T13:14:17.448Z,156
2017-12-17T13:15:18.822Z,168
2017-12-17T13:16:20.180Z,172
2017-12-17T13:17:22.280Z,140
2017-12-17T13:18:23.673Z,152
2017-12-17T13:19:25.016Z,148
2017-12-17T13:20:26.370Z,124
2017-12-17T13:21:27.726Z,108
2017-12-17T13:22:29.096Z,104
2017-12-17T13:23:30.450Z,112
2017-12-17T13:24:31.810Z,120
2017-12-17T13:25:33.194Z,128
2017-12-17T13:26:34.559Z,128
2017-12-17T13:27:35.923Z,124
2017-12-17T13:28:37.273Z,116
2017-12-17T13:29:38.665Z,104
2017-12-17T13:30:40.033Z,96
2017-12-17T13:31:41.395Z,92
2017-12-17T13:32:42.767Z,96
2017-12-17T13:33:44.132Z,100
2017-12-17T13:34:45.491Z,112
2017-12-17T13:35:46.862Z,116
2017-12-17T13:36:48.214Z,112
2017-12-17T13:37:49.583Z,112
2017-12-17T13:38:50.948Z,120
2017-12-17T13:39:52.321Z,136
2017-12-17T13:40:53.672Z,148
2017-12-17T13:41:55.053Z,136
2017-12-17T13:42:56.403Z,124
2017-12-17T13:43:57.760Z,120
2017-12-17T13:44:59.122Z,120
2017-12-17T13:46:00.483Z,136
2017-12-17T13:47:01.844Z,156
2017-12-17T13:48:03.219Z,164
2017-12-17T13:49:04.579Z,156
2017-12-17T13:50:05.943Z,160
2017-12-17T13:51:07.300Z,168
2017-12-17T13:52:08.671Z,160
2017-12-17T13:53:10.045Z,140
2017-12-17T13:54:11.406Z,108
2017-12-17T13:55:12.768Z,96
2017-12-17T13:56:14.130Z,88
2017-12-17T13:57:15.528Z,88
2017-12-17T13:58:16.891Z,88
2017-12-17T13:59:18.255Z,92
2017-12-17T14:00:19.606Z,88
2017-12-17T14:01:20.978Z,76
2017-12-17T14:02:22.330Z,76
2017-12-17T14:03:23.692Z,80
2017-12-17T14:04:25.064Z,68
2017-12-17T14:05:26.422Z,64
2017-12-17T14:06:27.800Z,60
2017-12-17T14:07:29.163Z,60
2017-12-17T14:08:30.528Z,68
2017-12-17T14:09:31.890Z,72
2017-12-17T14:10:33.256Z,64
2017-12-17T14:11:34.613Z,60
2017-12-17T14:12:35.974Z,60
2017-12-17T14:13:37.343Z,60
2017-12-17T14:14:38.701Z,60
2017-12-17T14:15:40.063Z,60
2017-12-17T14:16:41.424Z,64
2017-12-17T14:17:42.782Z,64
2017-12-17T14:18:44.144Z,76
2017-12-17T14:19:45.515Z,88
2017-12-17T14:20:46.877Z,104
2017-12-17T14:21:48.250Z,116
2017-12-17T14:22:49.614Z,116
2017-12-17T14:23:50.977Z,108
2017-12-17T14:24:52.368Z,108
2017-12-17T14:25:53.730Z,112
2017-12-17T14:26:55.087Z,112
2017-12-17T14:27:56.490Z,116
2017-12-17T14:28:57.860Z,116
2017-12-17T14:29:59.212Z,112
2017-12-17T14:31:00.573Z,96
2017-12-17T14:32:01.944Z,80
2017-12-17T14:33:03.297Z,72
2017-12-17T14:34:04.657Z,68
2017-12-17T14:35:06.024Z,64
2017-12-17T14:36:07.374Z,64
2017-12-17T14:37:08.740Z,60
2017-12-17T14:38:10.093Z,60
2017-12-17T14:39:12.294Z,64
2017-12-17T14:40:13.649Z,76
2017-12-17T14:41:15.012Z,92
2017-12-17T14:42:16.382Z,104
2017-12-17T14:43:17.742Z,92
2017-12-17T14:44:19.102Z,80
2017-12-17T14:45:20.463Z,80
2017-12-17T14:46:21.825Z,84
2017-12-17T14:47:23.193Z,80
2017-12-17T14:48:24.551Z,76
2017-12-17T14:49:25.918Z,64
2017-12-17T14:50:27.300Z,60
2017-12-17T14:51:28.659Z,48
2017-12-17T14:52:30.018Z,44
2017-12-17T14:53:31.385Z,36